sensor_id;sensor_type;location;lat;lon;timestamp;temperature;humidity
43049;DHT22;28673;44.412;11.918;2023-07-22T00:00:21;25.80;99.90
43049;DHT22;28673;44.412;11.918;2023-07-22T00:02:48;25.80;99.90
43049;DHT22;28673;44.412;11.918;2023-07-22T00:05:14;25.80;99.90
43049;DHT22;28673;44.412;11.918;2023-07-22T00:07:40;25.80;99.90
43049;DHT22;28673;44.412;11.918;2023-07-22T00:10:07;25.80;99.90
43049;DHT22;28673;44.412;11.918;2023-07-22T00:12:34;25.70;99.90
43049;DHT22;28673;44.412;11.918;2023-07-22T00:15:01;25.70;99.90
43049;DHT22;28673;44.412;11.918;2023-07-22T00:17:27;25.70;99.90
43049;DHT22;28673;44.412;11.918;2023-07-22T00:19:53;25.70;99.90
43049;DHT22;28673;44.412;11.918;2023-07-22T00:22:18;25.70;99.90
43049;DHT22;28673;44.412;11.918;2023-07-22T00:24:45;25.70;99.90
43049;DHT22;28673;44.412;11.918;2023-07-22T00:27:11;25.60;99.90
43049;DHT22;28673;44.412;11.918;2023-07-22T00:29:37;25.60;99.90
43049;DHT22;28673;44.412;11.918;2023-07-22T00:32:05;25.60;99.90
43049;DHT22;28673;44.412;11.918;2023-07-22T00:34:35;25.60;99.90
43049;DHT22;28673;44.412;11.918;2023-07-22T00:37:01;25.60;99.90
43049;DHT22;28673;44.412;11.918;2023-07-22T00:39:26;25.60;99.90
43049;DHT22;28673;44.412;11.918;2023-07-22T00:41:52;25.60;99.90
43049;DHT22;28673;44.412;11.918;2023-07-22T00:44:18;25.50;99.90
43049;DHT22;28673;44.412;11.918;2023-07-22T00:46:45;25.40;99.90
43049;DHT22;28673;44.412;11.918;2023-07-22T00:49:12;25.40;99.90
43049;DHT22;28673;44.412;11.918;2023-07-22T00:51:40;25.30;99.90
43049;DHT22;28673;44.412;11.918;2023-07-22T00:54:06;25.30;99.90
43049;DHT22;28673;44.412;11.918;2023-07-22T00:56:35;25.30;99.90
43049;DHT22;28673;44.412;11.918;2023-07-22T00:59:01;25.30;99.90
43049;DHT22;28673;44.412;11.918;2023-07-22T01:01:28;25.20;99.90
43049;DHT22;28673;44.412;11.918;2023-07-22T01:03:54;25.10;99.90
43049;DHT22;28673;44.412;11.918;2023-07-22T01:06:21;25.00;99.90
43049;DHT22;28673;44.412;11.918;2023-07-22T01:08:48;25.00;99.90
43049;DHT22;28673;44.412;11.918;2023-07-22T01:11:14;25.00;99.90
43049;DHT22;28673;44.412;11.918;2023-07-22T01:13:39;24.90;99.90
43049;DHT22;28673;44.412;11.918;2023-07-22T01:16:06;24.90;99.90
43049;DHT22;28673;44.412;11.918;2023-07-22T01:18:35;24.90;99.90
43049;DHT22;28673;44.412;11.918;2023-07-22T01:21:02;24.90;99.90
43049;DHT22;28673;44.412;11.918;2023-07-22T01:23:28;24.90;99.90
43049;DHT22;28673;44.412;11.918;2023-07-22T01:25:54;24.90;99.90
43049;DHT22;28673;44.412;11.918;2023-07-22T01:28:21;24.90;99.90
43049;DHT22;28673;44.412;11.918;2023-07-22T01:30:48;24.80;99.90
43049;DHT22;28673;44.412;11.918;2023-07-22T01:33:14;24.80;99.90
43049;DHT22;28673;44.412;11.918;2023-07-22T01:35:40;24.70;99.90
43049;DHT22;28673;44.412;11.918;2023-07-22T01:38:06;24.70;99.90
43049;DHT22;28673;44.412;11.918;2023-07-22T01:40:34;24.60;99.90
43049;DHT22;28673;44.412;11.918;2023-07-22T01:42:59;24.60;99.90
43049;DHT22;28673;44.412;11.918;2023-07-22T01:45:25;24.60;99.90
43049;DHT22;28673;44.412;11.918;2023-07-22T01:47:51;24.60;99.90
43049;DHT22;28673;44.412;11.918;2023-07-22T01:50:17;24.60;99.90
43049;DHT22;28673;44.412;11.918;2023-07-22T01:52:44;24.60;99.90
43049;DHT22;28673;44.412;11.918;2023-07-22T01:55:12;24.60;99.90
43049;DHT22;28673;44.412;11.918;2023-07-22T01:57:38;24.50;99.90
43049;DHT22;28673;44.412;11.918;2023-07-22T02:00:06;24.50;99.90
43049;DHT22;28673;44.412;11.918;2023-07-22T02:02:42;24.50;99.90
43049;DHT22;28673;44.412;11.918;2023-07-22T02:05:08;24.50;99.90
43049;DHT22;28673;44.412;11.918;2023-07-22T02:07:38;24.40;99.90
43049;DHT22;28673;44.412;11.918;2023-07-22T02:10:04;24.40;99.90
43049;DHT22;28673;44.412;11.918;2023-07-22T02:12:31;24.40;99.90
43049;DHT22;28673;44.412;11.918;2023-07-22T02:14:56;24.40;99.90
43049;DHT22;28673;44.412;11.918;2023-07-22T02:17:22;24.40;99.90
43049;DHT22;28673;44.412;11.918;2023-07-22T02:19:49;24.40;99.90
43049;DHT22;28673;44.412;11.918;2023-07-22T02:22:15;24.40;99.90
43049;DHT22;28673;44.412;11.918;2023-07-22T02:24:41;24.40;99.90
43049;DHT22;28673;44.412;11.918;2023-07-22T02:27:07;24.40;99.90
43049;DHT22;28673;44.412;11.918;2023-07-22T02:29:36;24.30;99.90
43049;DHT22;28673;44.412;11.918;2023-07-22T02:32:02;24.30;99.90
43049;DHT22;28673;44.412;11.918;2023-07-22T02:34:29;24.20;99.90
43049;DHT22;28673;44.412;11.918;2023-07-22T02:36:54;24.20;99.90
43049;DHT22;28673;44.412;11.918;2023-07-22T02:39:20;24.20;99.90
43049;DHT22;28673;44.412;11.918;2023-07-22T02:41:46;24.20;99.90
43049;DHT22;28673;44.412;11.918;2023-07-22T02:44:12;24.20;99.90
43049;DHT22;28673;44.412;11.918;2023-07-22T02:46:38;24.20;99.90
43049;DHT22;28673;44.412;11.918;2023-07-22T02:49:04;24.20;99.90
43049;DHT22;28673;44.412;11.918;2023-07-22T02:51:30;24.20;99.90
43049;DHT22;28673;44.412;11.918;2023-07-22T02:53:56;24.20;99.90
43049;DHT22;28673;44.412;11.918;2023-07-22T02:56:22;24.10;99.90
43049;DHT22;28673;44.412;11.918;2023-07-22T02:58:50;24.10;99.90
43049;DHT22;28673;44.412;11.918;2023-07-22T03:01:15;24.10;99.90
43049;DHT22;28673;44.412;11.918;2023-07-22T03:03:41;24.10;99.90
43049;DHT22;28673;44.412;11.918;2023-07-22T03:06:08;24.10;99.90
43049;DHT22;28673;44.412;11.918;2023-07-22T03:11:07;24.10;99.90
43049;DHT22;28673;44.412;11.918;2023-07-22T03:13:33;24.10;99.90
43049;DHT22;28673;44.412;11.918;2023-07-22T03:16:00;24.10;99.90
43049;DHT22;28673;44.412;11.918;2023-07-22T03:18:30;24.00;99.90
43049;DHT22;28673;44.412;11.918;2023-07-22T03:20:57;24.00;99.90
43049;DHT22;28673;44.412;11.918;2023-07-22T03:23:23;24.00;99.90
43049;DHT22;28673;44.412;11.918;2023-07-22T03:25:49;23.90;99.90
43049;DHT22;28673;44.412;11.918;2023-07-22T03:28:15;23.90;99.90
43049;DHT22;28673;44.412;11.918;2023-07-22T03:30:42;23.90;99.90
43049;DHT22;28673;44.412;11.918;2023-07-22T03:33:08;23.90;99.90
43049;DHT22;28673;44.412;11.918;2023-07-22T03:35:34;23.90;99.90
43049;DHT22;28673;44.412;11.918;2023-07-22T03:38:00;23.90;99.90
43049;DHT22;28673;44.412;11.918;2023-07-22T03:40:26;23.80;99.90
43049;DHT22;28673;44.412;11.918;2023-07-22T03:42:57;23.90;99.90
43049;DHT22;28673;44.412;11.918;2023-07-22T03:45:23;23.80;99.90
43049;DHT22;28673;44.412;11.918;2023-07-22T03:47:56;23.80;99.90
43049;DHT22;28673;44.412;11.918;2023-07-22T03:50:22;23.80;99.90
43049;DHT22;28673;44.412;11.918;2023-07-22T03:52:48;23.80;99.90
43049;DHT22;28673;44.412;11.918;2023-07-22T03:55:14;23.70;99.90
43049;DHT22;28673;44.412;11.918;2023-07-22T03:57:40;23.70;99.90
43049;DHT22;28673;44.412;11.918;2023-07-22T04:00:07;23.70;99.90
43049;DHT22;28673;44.412;11.918;2023-07-22T04:02:40;23.70;99.90
43049;DHT22;28673;44.412;11.918;2023-07-22T04:05:07;23.80;99.90
43049;DHT22;28673;44.412;11.918;2023-07-22T04:07:33;23.80;99.90
43049;DHT22;28673;44.412;11.918;2023-07-22T04:09:59;23.80;99.90
43049;DHT22;28673;44.412;11.918;2023-07-22T04:12:25;23.80;99.90
43049;DHT22;28673;44.412;11.918;2023-07-22T04:14:51;23.70;99.90
43049;DHT22;28673;44.412;11.918;2023-07-22T04:17:17;23.80;99.90
43049;DHT22;28673;44.412;11.918;2023-07-22T04:19:43;23.80;99.90
43049;DHT22;28673;44.412;11.918;2023-07-22T04:22:12;23.70;99.90
43049;DHT22;28673;44.412;11.918;2023-07-22T04:24:38;23.70;99.90
43049;DHT22;28673;44.412;11.918;2023-07-22T04:27:05;23.70;99.90
43049;DHT22;28673;44.412;11.918;2023-07-22T04:29:31;23.80;99.90
43049;DHT22;28673;44.412;11.918;2023-07-22T04:32:00;23.80;99.90
43049;DHT22;28673;44.412;11.918;2023-07-22T04:34:35;23.80;99.90
43049;DHT22;28673;44.412;11.918;2023-07-22T04:37:02;23.80;99.90
43049;DHT22;28673;44.412;11.918;2023-07-22T04:39:28;23.80;99.90
43049;DHT22;28673;44.412;11.918;2023-07-22T04:41:54;23.80;99.90
43049;DHT22;28673;44.412;11.918;2023-07-22T04:44:20;23.80;99.90
43049;DHT22;28673;44.412;11.918;2023-07-22T04:46:46;23.70;99.90
43049;DHT22;28673;44.412;11.918;2023-07-22T04:49:12;23.80;99.90
43049;DHT22;28673;44.412;11.918;2023-07-22T04:51:39;23.80;99.90
43049;DHT22;28673;44.412;11.918;2023-07-22T04:54:05;23.80;99.90
43049;DHT22;28673;44.412;11.918;2023-07-22T04:56:31;23.80;99.90
43049;DHT22;28673;44.412;11.918;2023-07-22T04:58:57;23.90;99.90
43049;DHT22;28673;44.412;11.918;2023-07-22T05:01:23;23.90;99.90
43049;DHT22;28673;44.412;11.918;2023-07-22T05:03:49;23.90;99.90
43049;DHT22;28673;44.412;11.918;2023-07-22T05:06:15;23.90;99.90
43049;DHT22;28673;44.412;11.918;2023-07-22T05:08:41;23.90;99.90
43049;DHT22;28673;44.412;11.918;2023-07-22T05:11:07;23.90;99.90
43049;DHT22;28673;44.412;11.918;2023-07-22T05:13:33;24.00;99.90
43049;DHT22;28673;44.412;11.918;2023-07-22T05:15:59;24.00;99.90
43049;DHT22;28673;44.412;11.918;2023-07-22T05:18:25;24.00;99.90
43049;DHT22;28673;44.412;11.918;2023-07-22T05:20:51;24.00;99.90
43049;DHT22;28673;44.412;11.918;2023-07-22T05:23:17;24.10;99.90
43049;DHT22;28673;44.412;11.918;2023-07-22T05:25:42;24.10;99.90
43049;DHT22;28673;44.412;11.918;2023-07-22T05:28:08;24.20;99.90
43049;DHT22;28673;44.412;11.918;2023-07-22T05:30:34;24.20;99.90
43049;DHT22;28673;44.412;11.918;2023-07-22T05:33:00;24.30;99.90
43049;DHT22;28673;44.412;11.918;2023-07-22T05:35:26;24.40;99.90
43049;DHT22;28673;44.412;11.918;2023-07-22T05:37:52;24.40;99.90
43049;DHT22;28673;44.412;11.918;2023-07-22T05:40:17;24.50;99.90
43049;DHT22;28673;44.412;11.918;2023-07-22T05:42:43;24.50;99.90
43049;DHT22;28673;44.412;11.918;2023-07-22T05:45:10;24.60;99.90
43049;DHT22;28673;44.412;11.918;2023-07-22T05:47:39;24.70;99.90
43049;DHT22;28673;44.412;11.918;2023-07-22T05:50:05;24.80;99.90
43049;DHT22;28673;44.412;11.918;2023-07-22T05:52:32;24.80;99.90
43049;DHT22;28673;44.412;11.918;2023-07-22T05:54:58;24.90;99.90
43049;DHT22;28673;44.412;11.918;2023-07-22T05:57:24;25.00;99.90
43049;DHT22;28673;44.412;11.918;2023-07-22T05:59:49;25.00;99.90
43049;DHT22;28673;44.412;11.918;2023-07-22T06:02:17;25.10;99.90
43049;DHT22;28673;44.412;11.918;2023-07-22T06:04:44;25.20;99.90
43049;DHT22;28673;44.412;11.918;2023-07-22T06:07:10;25.20;99.90
43049;DHT22;28673;44.412;11.918;2023-07-22T06:09:35;25.30;99.90
43049;DHT22;28673;44.412;11.918;2023-07-22T06:12:01;25.40;99.90
43049;DHT22;28673;44.412;11.918;2023-07-22T06:14:27;25.50;99.90
43049;DHT22;28673;44.412;11.918;2023-07-22T06:16:53;25.60;99.90
43049;DHT22;28673;44.412;11.918;2023-07-22T06:19:19;25.70;99.90
43049;DHT22;28673;44.412;11.918;2023-07-22T06:21:45;25.80;99.90
43049;DHT22;28673;44.412;11.918;2023-07-22T06:24:11;25.90;99.90
43049;DHT22;28673;44.412;11.918;2023-07-22T06:26:37;26.00;99.90
43049;DHT22;28673;44.412;11.918;2023-07-22T06:29:03;26.10;99.90
43049;DHT22;28673;44.412;11.918;2023-07-22T06:31:28;26.20;99.90
43049;DHT22;28673;44.412;11.918;2023-07-22T06:33:57;26.30;99.90
43049;DHT22;28673;44.412;11.918;2023-07-22T06:36:23;26.40;99.90
43049;DHT22;28673;44.412;11.918;2023-07-22T06:38:49;26.50;99.90
43049;DHT22;28673;44.412;11.918;2023-07-22T06:41:15;26.60;99.90
43049;DHT22;28673;44.412;11.918;2023-07-22T06:43:41;26.70;99.90
43049;DHT22;28673;44.412;11.918;2023-07-22T06:46:07;26.90;99.90
43049;DHT22;28673;44.412;11.918;2023-07-22T06:48:33;27.00;99.90
43049;DHT22;28673;44.412;11.918;2023-07-22T06:50:59;27.10;99.90
43049;DHT22;28673;44.412;11.918;2023-07-22T06:53:25;27.30;99.90
43049;DHT22;28673;44.412;11.918;2023-07-22T06:55:52;27.40;99.90
43049;DHT22;28673;44.412;11.918;2023-07-22T06:58:21;27.50;99.90
43049;DHT22;28673;44.412;11.918;2023-07-22T07:00:54;27.70;99.90
43049;DHT22;28673;44.412;11.918;2023-07-22T07:03:21;27.80;99.90
43049;DHT22;28673;44.412;11.918;2023-07-22T07:05:57;28.00;99.90
43049;DHT22;28673;44.412;11.918;2023-07-22T07:08:23;28.10;99.90
43049;DHT22;28673;44.412;11.918;2023-07-22T07:10:50;28.30;99.90
43049;DHT22;28673;44.412;11.918;2023-07-22T07:13:16;28.40;99.90
43049;DHT22;28673;44.412;11.918;2023-07-22T07:15:46;28.50;99.90
43049;DHT22;28673;44.412;11.918;2023-07-22T07:18:14;28.70;99.90
43049;DHT22;28673;44.412;11.918;2023-07-22T07:20:40;28.80;99.80
43049;DHT22;28673;44.412;11.918;2023-07-22T07:23:06;29.00;99.40
43049;DHT22;28673;44.412;11.918;2023-07-22T07:25:31;29.10;99.30
43049;DHT22;28673;44.412;11.918;2023-07-22T07:27:57;29.10;98.80
43049;DHT22;28673;44.412;11.918;2023-07-22T07:30:23;29.20;98.60
43049;DHT22;28673;44.412;11.918;2023-07-22T07:32:49;29.20;98.70
43049;DHT22;28673;44.412;11.918;2023-07-22T07:35:15;29.30;98.70
43049;DHT22;28673;44.412;11.918;2023-07-22T07:37:41;29.40;98.60
43049;DHT22;28673;44.412;11.918;2023-07-22T07:40:08;29.60;98.40
43049;DHT22;28673;44.412;11.918;2023-07-22T07:42:34;29.80;98.00
43049;DHT22;28673;44.412;11.918;2023-07-22T07:45:00;29.90;97.80
43049;DHT22;28673;44.412;11.918;2023-07-22T07:47:26;30.00;97.60
43049;DHT22;28673;44.412;11.918;2023-07-22T07:49:51;30.10;97.40
43049;DHT22;28673;44.412;11.918;2023-07-22T07:52:17;30.10;97.20
43049;DHT22;28673;44.412;11.918;2023-07-22T07:54:43;30.20;97.00
43049;DHT22;28673;44.412;11.918;2023-07-22T07:57:09;30.30;96.80
43049;DHT22;28673;44.412;11.918;2023-07-22T07:59:35;30.40;96.70
43049;DHT22;28673;44.412;11.918;2023-07-22T08:02:01;30.60;96.30
43049;DHT22;28673;44.412;11.918;2023-07-22T08:04:29;30.70;96.10
43049;DHT22;28673;44.412;11.918;2023-07-22T08:06:56;30.90;96.00
43049;DHT22;28673;44.412;11.918;2023-07-22T08:09:22;31.10;95.70
43049;DHT22;28673;44.412;11.918;2023-07-22T08:11:48;31.30;95.60
43049;DHT22;28673;44.412;11.918;2023-07-22T08:14:14;31.50;95.20
43049;DHT22;28673;44.412;11.918;2023-07-22T08:16:40;31.70;95.00
43049;DHT22;28673;44.412;11.918;2023-07-22T08:19:06;31.90;94.80
43049;DHT22;28673;44.412;11.918;2023-07-22T08:21:32;31.90;94.40
43049;DHT22;28673;44.412;11.918;2023-07-22T08:23:58;32.00;94.40
43049;DHT22;28673;44.412;11.918;2023-07-22T08:26:24;32.20;94.10
43049;DHT22;28673;44.412;11.918;2023-07-22T08:28:50;32.30;93.90
43049;DHT22;28673;44.412;11.918;2023-07-22T08:31:16;32.40;93.80
43049;DHT22;28673;44.412;11.918;2023-07-22T08:33:41;32.70;93.50
43049;DHT22;28673;44.412;11.918;2023-07-22T08:36:08;32.90;93.50
43049;DHT22;28673;44.412;11.918;2023-07-22T08:38:34;33.10;93.10
43049;DHT22;28673;44.412;11.918;2023-07-22T08:41:00;33.30;92.80
43049;DHT22;28673;44.412;11.918;2023-07-22T08:43:27;33.50;92.60
43049;DHT22;28673;44.412;11.918;2023-07-22T08:45:54;33.60;92.00
43049;DHT22;28673;44.412;11.918;2023-07-22T08:48:21;33.70;92.10
43049;DHT22;28673;44.412;11.918;2023-07-22T08:51:08;33.70;91.60
43049;DHT22;28673;44.412;11.918;2023-07-22T08:53:35;33.70;91.50
43049;DHT22;28673;44.412;11.918;2023-07-22T08:56:03;33.70;91.10
43049;DHT22;28673;44.412;11.918;2023-07-22T08:58:30;33.70;91.50
43049;DHT22;28673;44.412;11.918;2023-07-22T09:00:56;34.00;91.30
43049;DHT22;28673;44.412;11.918;2023-07-22T09:03:25;34.10;91.00
43049;DHT22;28673;44.412;11.918;2023-07-22T09:05:51;34.30;90.80
43049;DHT22;28673;44.412;11.918;2023-07-22T09:08:17;34.40;90.60
43049;DHT22;28673;44.412;11.918;2023-07-22T09:10:43;34.60;90.60
43049;DHT22;28673;44.412;11.918;2023-07-22T09:13:13;34.80;90.10
43049;DHT22;28673;44.412;11.918;2023-07-22T09:15:40;35.10;90.00
43049;DHT22;28673;44.412;11.918;2023-07-22T09:18:06;35.30;89.40
43049;DHT22;28673;44.412;11.918;2023-07-22T09:20:33;35.40;89.00
43049;DHT22;28673;44.412;11.918;2023-07-22T09:23:00;35.70;88.90
43049;DHT22;28673;44.412;11.918;2023-07-22T09:25:27;35.80;87.90
43049;DHT22;28673;44.412;11.918;2023-07-22T09:27:58;35.80;86.60
43049;DHT22;28673;44.412;11.918;2023-07-22T09:30:30;35.80;86.20
43049;DHT22;28673;44.412;11.918;2023-07-22T09:32:58;36.00;86.40
43049;DHT22;28673;44.412;11.918;2023-07-22T09:35:30;36.10;86.10
43049;DHT22;28673;44.412;11.918;2023-07-22T09:37:58;36.10;85.40
43049;DHT22;28673;44.412;11.918;2023-07-22T09:40:26;36.20;85.00
43049;DHT22;28673;44.412;11.918;2023-07-22T09:42:54;36.30;84.70
43049;DHT22;28673;44.412;11.918;2023-07-22T09:45:22;36.50;84.20
43049;DHT22;28673;44.412;11.918;2023-07-22T09:47:50;36.40;83.50
43049;DHT22;28673;44.412;11.918;2023-07-22T09:50:20;36.60;83.20
43049;DHT22;28673;44.412;11.918;2023-07-22T09:52:51;36.70;82.90
43049;DHT22;28673;44.412;11.918;2023-07-22T09:55:18;36.80;82.60
43049;DHT22;28673;44.412;11.918;2023-07-22T09:57:46;36.80;82.60
43049;DHT22;28673;44.412;11.918;2023-07-22T10:00:13;37.00;82.80
43049;DHT22;28673;44.412;11.918;2023-07-22T10:02:46;37.20;82.20
43049;DHT22;28673;44.412;11.918;2023-07-22T10:05:18;37.40;81.40
43049;DHT22;28673;44.412;11.918;2023-07-22T10:07:52;37.60;81.20
43049;DHT22;28673;44.412;11.918;2023-07-22T10:10:22;37.80;80.60
43049;DHT22;28673;44.412;11.918;2023-07-22T10:12:49;38.00;80.10
43049;DHT22;28673;44.412;11.918;2023-07-22T10:15:16;38.20;79.90
43049;DHT22;28673;44.412;11.918;2023-07-22T10:17:43;38.40;79.10
43049;DHT22;28673;44.412;11.918;2023-07-22T10:20:11;38.70;78.90
43049;DHT22;28673;44.412;11.918;2023-07-22T10:22:44;38.80;77.90
43049;DHT22;28673;44.412;11.918;2023-07-22T10:25:12;38.90;77.60
43049;DHT22;28673;44.412;11.918;2023-07-22T10:27:39;39.10;76.90
43049;DHT22;28673;44.412;11.918;2023-07-22T10:30:13;39.30;76.60
43049;DHT22;28673;44.412;11.918;2023-07-22T10:32:43;39.40;76.60
43049;DHT22;28673;44.412;11.918;2023-07-22T10:35:12;39.40;76.70
43049;DHT22;28673;44.412;11.918;2023-07-22T10:37:39;39.30;76.70
43049;DHT22;28673;44.412;11.918;2023-07-22T10:40:27;39.50;76.70
43049;DHT22;28673;44.412;11.918;2023-07-22T10:42:56;39.80;76.00
43049;DHT22;28673;44.412;11.918;2023-07-22T10:45:33;39.80;75.30
43049;DHT22;28673;44.412;11.918;2023-07-22T10:50:58;39.80;74.30
43049;DHT22;28673;44.412;11.918;2023-07-22T10:53:30;39.80;74.40
43049;DHT22;28673;44.412;11.918;2023-07-22T10:56:19;39.90;74.90
43049;DHT22;28673;44.412;11.918;2023-07-22T11:04:23;39.90;74.00
43049;DHT22;28673;44.412;11.918;2023-07-22T11:07:00;39.90;72.60
43049;DHT22;28673;44.412;11.918;2023-07-22T11:12:18;40.00;73.30
43049;DHT22;28673;44.412;11.918;2023-07-22T11:14:50;40.10;72.80
43049;DHT22;28673;44.412;11.918;2023-07-22T11:17:18;40.20;72.60
43049;DHT22;28673;44.412;11.918;2023-07-22T11:19:44;40.20;72.60
43049;DHT22;28673;44.412;11.918;2023-07-22T11:22:10;40.40;72.50
43049;DHT22;28673;44.412;11.918;2023-07-22T11:24:37;40.40;72.70
43049;DHT22;28673;44.412;11.918;2023-07-22T11:27:04;40.50;72.40
43049;DHT22;28673;44.412;11.918;2023-07-22T11:29:31;40.50;72.40
43049;DHT22;28673;44.412;11.918;2023-07-22T11:31:57;40.40;72.10
43049;DHT22;28673;44.412;11.918;2023-07-22T11:34:24;40.50;71.20
43049;DHT22;28673;44.412;11.918;2023-07-22T11:36:52;40.70;71.00
43049;DHT22;28673;44.412;11.918;2023-07-22T11:39:20;41.00;70.70
43049;DHT22;28673;44.412;11.918;2023-07-22T11:41:48;41.30;71.10
43049;DHT22;28673;44.412;11.918;2023-07-22T11:44:16;41.60;70.20
43049;DHT22;28673;44.412;11.918;2023-07-22T11:49:26;42.00;69.30
43049;DHT22;28673;44.412;11.918;2023-07-22T11:52:00;42.00;67.60
43049;DHT22;28673;44.412;11.918;2023-07-22T11:54:27;42.00;68.10
43049;DHT22;28673;44.412;11.918;2023-07-22T11:56:57;42.10;68.40
43049;DHT22;28673;44.412;11.918;2023-07-22T11:59:37;42.20;68.10
43049;DHT22;28673;44.412;11.918;2023-07-22T12:02:04;42.20;67.40
43049;DHT22;28673;44.412;11.918;2023-07-22T12:04:32;42.10;67.00
43049;DHT22;28673;44.412;11.918;2023-07-22T12:06:59;42.00;67.10
43049;DHT22;28673;44.412;11.918;2023-07-22T12:09:25;42.20;67.50
43049;DHT22;28673;44.412;11.918;2023-07-22T12:11:58;42.30;66.90
43049;DHT22;28673;44.412;11.918;2023-07-22T12:14:32;42.00;66.30
43049;DHT22;28673;44.412;11.918;2023-07-22T12:16:59;41.90;66.80
43049;DHT22;28673;44.412;11.918;2023-07-22T12:19:27;41.90;67.30
43049;DHT22;28673;44.412;11.918;2023-07-22T12:21:54;42.00;67.50
43049;DHT22;28673;44.412;11.918;2023-07-22T12:24:19;42.10;67.30
43049;DHT22;28673;44.412;11.918;2023-07-22T12:26:45;42.10;67.10
43049;DHT22;28673;44.412;11.918;2023-07-22T12:29:11;41.90;66.90
43049;DHT22;28673;44.412;11.918;2023-07-22T12:31:37;41.80;66.70
43049;DHT22;28673;44.412;11.918;2023-07-22T12:34:03;41.70;66.40
43049;DHT22;28673;44.412;11.918;2023-07-22T12:36:29;41.70;66.50
43049;DHT22;28673;44.412;11.918;2023-07-22T12:38:55;41.60;66.20
43049;DHT22;28673;44.412;11.918;2023-07-22T12:41:21;41.60;66.40
43049;DHT22;28673;44.412;11.918;2023-07-22T12:43:47;41.80;66.40
43049;DHT22;28673;44.412;11.918;2023-07-22T12:46:14;41.90;65.70
43049;DHT22;28673;44.412;11.918;2023-07-22T12:48:40;42.10;64.00
43049;DHT22;28673;44.412;11.918;2023-07-22T12:51:06;42.40;61.80
43049;DHT22;28673;44.412;11.918;2023-07-22T12:53:32;42.40;60.00
43049;DHT22;28673;44.412;11.918;2023-07-22T12:55:58;42.50;59.40
43049;DHT22;28673;44.412;11.918;2023-07-22T12:58:24;42.70;58.50
43049;DHT22;28673;44.412;11.918;2023-07-22T13:00:50;42.70;57.80
43049;DHT22;28673;44.412;11.918;2023-07-22T13:03:16;42.80;57.60
43049;DHT22;28673;44.412;11.918;2023-07-22T13:05:41;42.80;56.90
43049;DHT22;28673;44.412;11.918;2023-07-22T13:08:07;42.80;56.90
43049;DHT22;28673;44.412;11.918;2023-07-22T13:10:34;42.80;57.00
43049;DHT22;28673;44.412;11.918;2023-07-22T13:13:03;42.70;55.20
43049;DHT22;28673;44.412;11.918;2023-07-22T13:15:29;42.60;55.70
43049;DHT22;28673;44.412;11.918;2023-07-22T13:17:54;42.40;55.70
43049;DHT22;28673;44.412;11.918;2023-07-22T13:20:20;42.40;56.30
43049;DHT22;28673;44.412;11.918;2023-07-22T13:22:46;42.20;56.00
43049;DHT22;28673;44.412;11.918;2023-07-22T13:25:12;42.10;54.90
43049;DHT22;28673;44.412;11.918;2023-07-22T13:27:38;42.20;56.50
43049;DHT22;28673;44.412;11.918;2023-07-22T13:30:08;42.00;58.90
43049;DHT22;28673;44.412;11.918;2023-07-22T13:32:34;41.90;61.00
43049;DHT22;28673;44.412;11.918;2023-07-22T13:35:00;41.50;61.30
43049;DHT22;28673;44.412;11.918;2023-07-22T13:37:26;41.10;60.20
43049;DHT22;28673;44.412;11.918;2023-07-22T13:39:52;40.60;60.30
43049;DHT22;28673;44.412;11.918;2023-07-22T13:42:18;39.80;60.90
43049;DHT22;28673;44.412;11.918;2023-07-22T13:44:44;38.70;62.50
43049;DHT22;28673;44.412;11.918;2023-07-22T13:47:10;37.70;65.00
43049;DHT22;28673;44.412;11.918;2023-07-22T13:49:36;37.00;67.80
43049;DHT22;28673;44.412;11.918;2023-07-22T13:52:02;36.10;70.30
43049;DHT22;28673;44.412;11.918;2023-07-22T13:54:28;35.40;69.00
43049;DHT22;28673;44.412;11.918;2023-07-22T13:56:54;34.80;69.20
43049;DHT22;28673;44.412;11.918;2023-07-22T13:59:19;34.30;68.60
43049;DHT22;28673;44.412;11.918;2023-07-22T14:01:45;33.90;68.10
43049;DHT22;28673;44.412;11.918;2023-07-22T14:04:11;33.40;67.60
43049;DHT22;28673;44.412;11.918;2023-07-22T14:06:37;32.90;68.30
43049;DHT22;28673;44.412;11.918;2023-07-22T14:09:03;32.50;68.60
43049;DHT22;28673;44.412;11.918;2023-07-22T14:11:29;32.30;69.00
43049;DHT22;28673;44.412;11.918;2023-07-22T14:13:54;31.90;69.90
43049;DHT22;28673;44.412;11.918;2023-07-22T14:16:20;31.60;72.40
43049;DHT22;28673;44.412;11.918;2023-07-22T14:18:46;31.40;74.60
43049;DHT22;28673;44.412;11.918;2023-07-22T14:21:12;31.40;77.10
43049;DHT22;28673;44.412;11.918;2023-07-22T14:23:38;31.30;79.00
43049;DHT22;28673;44.412;11.918;2023-07-22T14:26:04;31.40;80.00
43049;DHT22;28673;44.412;11.918;2023-07-22T14:28:30;31.40;81.20
43049;DHT22;28673;44.412;11.918;2023-07-22T14:30:56;31.40;82.70
43049;DHT22;28673;44.412;11.918;2023-07-22T14:33:21;31.50;84.60
43049;DHT22;28673;44.412;11.918;2023-07-22T14:35:49;31.30;85.40
43049;DHT22;28673;44.412;11.918;2023-07-22T14:38:15;31.10;87.20
43049;DHT22;28673;44.412;11.918;2023-07-22T14:40:40;31.00;88.60
43049;DHT22;28673;44.412;11.918;2023-07-22T14:43:06;30.90;88.50
43049;DHT22;28673;44.412;11.918;2023-07-22T14:45:32;31.00;88.50
43049;DHT22;28673;44.412;11.918;2023-07-22T14:47:58;31.00;88.00
43049;DHT22;28673;44.412;11.918;2023-07-22T14:50:25;31.00;87.60
43049;DHT22;28673;44.412;11.918;2023-07-22T14:52:51;31.10;88.30
43049;DHT22;28673;44.412;11.918;2023-07-22T14:55:17;31.10;87.60
43049;DHT22;28673;44.412;11.918;2023-07-22T14:57:43;31.20;87.40
43049;DHT22;28673;44.412;11.918;2023-07-22T15:00:09;31.30;86.60
43049;DHT22;28673;44.412;11.918;2023-07-22T15:02:36;31.40;86.60
43049;DHT22;28673;44.412;11.918;2023-07-22T15:05:02;31.60;85.70
43049;DHT22;28673;44.412;11.918;2023-07-22T15:07:27;31.70;85.00
43049;DHT22;28673;44.412;11.918;2023-07-22T15:09:56;31.70;84.40
43049;DHT22;28673;44.412;11.918;2023-07-22T15:12:23;31.90;84.50
43049;DHT22;28673;44.412;11.918;2023-07-22T15:14:48;32.10;84.20
43049;DHT22;28673;44.412;11.918;2023-07-22T15:17:15;32.40;84.20
43049;DHT22;28673;44.412;11.918;2023-07-22T15:19:41;32.60;83.70
43049;DHT22;28673;44.412;11.918;2023-07-22T15:22:07;32.80;83.50
43049;DHT22;28673;44.412;11.918;2023-07-22T15:24:33;33.10;83.00
43049;DHT22;28673;44.412;11.918;2023-07-22T15:26:59;33.30;83.50
43049;DHT22;28673;44.412;11.918;2023-07-22T15:29:24;33.60;82.60